Time;durP1;ratioP1;P1;durP2;ratioP2;P2;SDS_P1;SDS_P2;PMS_P1;PMS_P2;Temp;Humidity;BMP_temperature;BMP_pressure;BME280_temperature;BME280_humidity;BME280_pressure;Samples;Min_cycle;Max_cycle;Signal;HPM_P1;HPM_P2
2022/10/22 00:00:56;;;;;;;;;;;;;;;18.57;67.26;100373.97;2350766;75;22388;-76
2022/10/22 00:03:58;;;;;;;;;;;;;;;18.60;67.11;100397.70;2315410;75;50115;-75
2022/10/22 00:06:59;;;;;;;;;;;;;;;18.59;67.12;100407.59;2349958;75;50211;-75
2022/10/22 00:10:01;;;;;;;;;;;;;;;18.59;67.09;100394.20;2349733;75;50405;-77
2022/10/22 00:13:03;;;;;;;;;;;;;;;18.59;67.06;100394.71;2312193;75;50985;-75
2022/10/22 00:16:04;;;;;;;;;;;;;;;18.61;66.99;100399.37;2309719;77;50369;-76
2022/10/22 00:19:08;;;;;;;;;;;;;;;18.61;66.95;100398.04;2309832;77;51584;-76
2022/10/22 00:22:09;;;;;;;;;;;;;;;18.57;67.02;100399.42;2288583;77;50375;-75
2022/10/22 00:25:11;;;;;;;;;;;;;;;18.59;66.92;100401.41;2287796;77;50113;-75
2022/10/22 00:28:13;;;;;;;;;;;;;;;18.56;67.07;100391.08;2309959;75;51568;-76
2022/10/22 00:31:15;;;;;;;;;;;;;;;18.56;67.04;100395.92;2316015;75;50392;-75
2022/10/22 00:34:17;;;;;;;;;;;;;;;18.56;67.07;100380.36;2353772;75;51784;-75
2022/10/22 00:37:19;;;;;;;;;;;;;;;18.56;67.10;100377.68;2314993;75;50272;-76
2022/10/22 00:40:20;;;;;;;;;;;;;;;18.55;67.01;100382.22;2350064;75;50728;-75
2022/10/22 00:43:22;;;;;;;;;;;;;;;18.55;66.98;100374.17;2329082;75;51479;-77
2022/10/22 00:46:23;;;;;;;;;;;;;;;18.55;67.07;100363.46;2277429;77;51594;-75
2022/10/22 00:49:25;;;;;;;;;;;;;;;18.55;67.06;100367.96;2254921;77;51794;-75
2022/10/22 00:52:26;;;;;;;;;;;;;;;18.57;67.02;100365.93;2310216;77;50353;-74
2022/10/22 00:55:28;;;;;;;;;;;;;;;18.56;66.96;100375.00;2309799;77;50414;-74
2022/10/22 00:58:31;;;;;;;;;;;;;;;18.59;66.86;100382.66;2310275;77;51643;-75
2022/10/22 01:01:32;;;;;;;;;;;;;;;18.56;66.97;100391.91;2279169;77;51072;-75
2022/10/22 01:04:34;;;;;;;;;;;;;;;18.56;67.02;100385.72;2277768;77;50810;-75
2022/10/22 01:07:37;;;;;;;;;;;;;;;18.59;66.91;100394.71;2309802;77;52307;-75
2022/10/22 01:10:40;;;;;;;;;;;;;;;18.55;66.94;100403.65;2275240;77;52528;-76
2022/10/22 01:13:52;;;;;;;;;;;;;;;18.57;66.93;100407.47;2276568;77;52559;-75
2022/10/22 01:16:59;;;;;;;;;;;;;;;18.56;66.88;100399.94;2289700;77;50492;-75
2022/10/22 01:20:14;;;;;;;;;;;;;;;18.58;66.82;100403.78;2309700;77;51663;-75
2022/10/22 01:23:23;;;;;;;;;;;;;;;18.58;66.83;100410.48;2309550;77;50855;-75
2022/10/22 01:26:27;;;;;;;;;;;;;;;18.55;66.90;100400.11;2287868;77;49447;-75
2022/10/22 01:29:30;;;;;;;;;;;;;;;18.57;66.88;100386.03;2309655;76;50485;-75
2022/10/22 01:32:32;;;;;;;;;;;;;;;18.55;66.87;100384.89;2308672;77;50551;-75
2022/10/22 01:35:35;;;;;;;;;;;;;;;18.55;66.89;100376.86;2309467;77;51680;-75
2022/10/22 01:38:36;;;;;;;;;;;;;;;18.57;66.80;100372.63;2288074;77;50114;-75
2022/10/22 01:41:38;;;;;;;;;;;;;;;18.56;66.85;100376.34;2309749;77;51458;-75
2022/10/22 01:44:40;;;;;;;;;;;;;;;18.53;66.91;100378.89;2309557;77;50441;-76
2022/10/22 01:47:43;;;;;;;;;;;;;;;18.53;66.90;100371.36;2309657;77;50519;-76
2022/10/22 01:51:03;;;;;;;;;;;;;;;18.55;66.85;100376.86;2276207;77;49670;-76
2022/10/22 01:54:23;;;;;;;;;;;;;;;18.54;66.88;100380.53;2309490;77;50590;-76
2022/10/22 01:57:38;;;;;;;;;;;;;;;18.53;66.92;100383.42;2309717;77;51672;-77
2022/10/22 02:00:40;;;;;;;;;;;;;;;18.53;66.83;100386.92;2308857;77;51647;-77
2022/10/22 02:03:43;;;;;;;;;;;;;;;18.53;66.91;100393.63;2275996;77;52616;-77
2022/10/22 02:06:44;;;;;;;;;;;;;;;18.54;66.89;100407.33;2309741;77;51999;-76
2022/10/22 02:09:46;;;;;;;;;;;;;;;18.52;66.86;100399.98;2309771;77;50774;-77
2022/10/22 02:12:48;;;;;;;;;;;;;;;18.54;66.87;100395.79;2309099;75;50076;-76
2022/10/22 02:15:50;;;;;;;;;;;;;;;18.55;66.84;100399.63;2313832;75;49165;-77
2022/10/22 02:18:51;;;;;;;;;;;;;;;18.54;66.79;100392.59;2349670;75;50451;-76
2022/10/22 02:21:53;;;;;;;;;;;;;;;18.54;66.83;100391.25;2349585;75;51502;-77
2022/10/22 02:24:55;;;;;;;;;;;;;;;18.52;66.89;100402.66;2349487;75;50303;-76
2022/10/22 02:28:15;;;;;;;;;;;;;;;18.53;66.82;100387.44;2314653;75;50110;-76
2022/10/22 02:31:21;;;;;;;;;;;;;;;18.55;66.75;100394.27;2349633;75;50402;-76
2022/10/22 02:34:22;;;;;;;;;;;;;;;18.56;66.75;100388.40;2349276;75;50467;-76
2022/10/22 02:37:24;;;;;;;;;;;;;;;18.53;66.75;100376.73;2349431;75;50784;-75
2022/10/22 02:40:26;;;;;;;;;;;;;;;18.53;66.76;100383.42;2349575;75;50360;-76
2022/10/22 02:43:28;;;;;;;;;;;;;;;18.55;66.71;100388.06;2294642;77;52387;-76
2022/10/22 02:46:29;;;;;;;;;;;;;;;18.54;66.71;100381.88;2309667;76;52425;-77
2022/10/22 02:49:31;;;;;;;;;;;;;;;18.56;66.69;100387.06;2309662;77;51520;-75
2022/10/22 02:52:33;;;;;;;;;;;;;;;18.53;66.77;100390.95;2313850;76;51428;-76
2022/10/22 02:55:34;;;;;;;;;;;;;;;18.54;66.74;100396.61;2313679;76;51007;-76
2022/10/22 02:58:36;;;;;;;;;;;;;;;18.52;66.80;100396.48;2313877;76;50497;-76
2022/10/22 03:01:37;;;;;;;;;;;;;;;18.49;66.81;100407.89;2309672;77;50383;-77
2022/10/22 03:04:39;;;;;;;;;;;;;;;18.50;66.77;100409.56;2313829;76;50500;-77
2022/10/22 03:07:40;;;;;;;;;;;;;;;18.53;66.74;100398.98;2314017;76;50061;-76
2022/10/22 03:10:42;;;;;;;;;;;;;;;18.52;66.69;100398.64;2309690;77;51517;-76
2022/10/22 03:13:44;;;;;;;;;;;;;;;18.53;66.66;100388.78;2337636;75;50412;-76
2022/10/22 03:16:46;;;;;;;;;;;;;;;18.55;66.60;100386.23;2276261;77;50623;-76
2022/10/22 03:19:47;;;;;;;;;;;;;;;18.56;66.54;100389.22;2251318;77;52710;-76
2022/10/22 03:22:49;;;;;;;;;;;;;;;18.54;66.62;100390.43;2276209;77;50678;-76
2022/10/22 03:25:50;;;;;;;;;;;;;;;18.55;66.57;100381.36;2309548;77;51487;-76
2022/10/22 03:28:52;;;;;;;;;;;;;;;18.53;66.59;100376.73;2309774;77;51499;-76
2022/10/22 03:31:54;;;;;;;;;;;;;;;18.53;66.54;100379.41;2251291;77;51104;-76
2022/10/22 03:34:55;;;;;;;;;;;;;;;18.55;66.51;100378.68;2309706;77;50856;-76
2022/10/22 03:37:59;;;;;;;;;;;;;;;18.53;66.55;100386.11;2276278;77;50884;-77
2022/10/22 03:41:00;;;;;;;;;;;;;;;18.52;66.64;100392.46;2311313;75;50411;-77
2022/10/22 03:44:02;;;;;;;;;;;;;;;18.53;66.58;100392.80;2294049;77;51307;-76
2022/10/22 03:47:04;;;;;;;;;;;;;;;18.52;66.61;100379.06;2309745;77;51521;-77
2022/10/22 03:50:07;;;;;;;;;;;;;;;18.56;66.54;100387.06;2309551;76;50096;-77
2022/10/22 03:53:09;;;;;;;;;;;;;;;18.64;66.60;100389.62;2309899;77;50320;-77
2022/10/22 03:56:11;;;;;;;;;;;;;;;18.69;66.60;100393.90;2276107;77;51393;-76
2022/10/22 03:59:12;;;;;;;;;;;;;;;18.74;66.43;100392.81;2309388;76;51528;-77
2022/10/22 04:02:14;;;;;;;;;;;;;;;18.77;66.36;100400.50;2309794;77;52432;-77
2022/10/22 04:05:15;;;;;;;;;;;;;;;18.78;66.30;100392.80;2309665;77;50482;-77
2022/10/22 04:08:17;;;;;;;;;;;;;;;18.79;66.26;100407.03;2276295;77;49527;-77
2022/10/22 04:11:19;;;;;;;;;;;;;;;18.79;66.26;100408.37;2314565;75;50344;-76
2022/10/22 04:14:20;;;;;;;;;;;;;;;18.78;66.24;100410.70;2286572;77;50664;-76
2022/10/22 04:17:22;;;;;;;;;;;;;;;18.78;66.25;100411.56;2274874;77;51646;-76
2022/10/22 04:20:23;;;;;;;;;;;;;;;18.78;66.22;100416.92;2276201;77;49804;-76
2022/10/22 04:23:25;;;;;;;;;;;;;;;18.76;66.01;100431.53;2274697;77;51765;-77
2022/10/22 04:26:27;;;;;;;;;;;;;;;18.77;66.23;100429.98;2274928;77;51548;-76
2022/10/22 04:29:28;;;;;;;;;;;;;;;18.79;66.27;100435.17;2309670;77;51502;-76
2022/10/22 04:32:30;;;;;;;;;;;;;;;18.79;66.20;100440.02;2250496;77;50868;-76
2022/10/22 04:35:31;;;;;;;;;;;;;;;18.79;66.20;100436.00;2309493;77;50409;-76
2022/10/22 04:38:33;;;;;;;;;;;;;;;18.78;66.25;100430.33;2309912;77;50353;-76
2022/10/22 04:41:35;;;;;;;;;;;;;;;18.78;66.19;100433.01;2319828;75;50388;-77
2022/10/22 04:44:37;;;;;;;;;;;;;;;18.79;66.15;100431.98;2308468;75;52436;-76
2022/10/22 04:47:38;;;;;;;;;;;;;;;18.75;66.04;100427.14;2357557;75;50404;-77
2022/10/22 04:50:40;;;;;;;;;;;;;;;18.71;65.99;100426.70;2357781;75;50468;-77
2022/10/22 04:53:42;;;;;;;;;;;;;;;18.72;66.11;100427.84;2357680;75;50414;-77
2022/10/22 04:56:43;;;;;;;;;;;;;;;18.77;66.09;100419.27;2357886;75;50736;-77
2022/10/22 04:59:45;;;;;;;;;;;;;;;18.80;66.12;100422.90;2357776;75;51537;-74
2022/10/22 05:02:50;;;;;;;;;;;;;;;18.79;66.11;100421.25;2357554;75;51412;-74
2022/10/22 05:05:51;;;;;;;;;;;;;;;18.84;65.97;100420.17;2357641;75;50430;-76
2022/10/22 05:08:54;;;;;;;;;;;;;;;18.82;65.98;100425.41;2330794;75;49540;-76
2022/10/22 05:11:55;;;;;;;;;;;;;;;18.77;66.01;100423.29;2338643;75;51493;-76
2022/10/22 05:14:57;;;;;;;;;;;;;;;18.74;66.06;100417.45;2309518;77;52647;-76
2022/10/22 05:17:59;;;;;;;;;;;;;;;18.73;66.16;100419.31;2274895;77;51494;-74
2022/10/22 05:21:00;;;;;;;;;;;;;;;18.69;66.80;100420.70;2276104;77;52507;-74
2022/10/22 05:24:02;;;;;;;;;;;;;;;18.67;67.00;100427.58;2274471;77;50340;-74
2022/10/22 05:27:04;;;;;;;;;;;;;;;18.73;66.61;100434.05;2309682;76;50698;-73
2022/10/22 05:30:06;;;;;;;;;;;;;;;18.77;66.46;100436.69;2309565;76;51494;-73
2022/10/22 05:33:07;;;;;;;;;;;;;;;18.80;66.28;100432.28;2249965;77;51341;-76
2022/10/22 05:36:10;;;;;;;;;;;;;;;18.78;67.42;100428.98;2274678;77;50309;-76
2022/10/22 05:39:12;;;;;;;;;;;;;;;18.81;67.32;100429.94;2329507;75;51662;-74
2022/10/22 05:42:13;;;;;;;;;;;;;;;18.77;67.86;100430.50;2289243;75;51496;-74
2022/10/22 05:45:15;;;;;;;;;;;;;;;18.82;66.98;100423.55;2267281;77;49486;-75
2022/10/22 05:48:17;;;;;;;;;;;;;;;18.82;67.20;100433.45;2276014;77;50374;-75
2022/10/22 05:51:18;;;;;;;;;;;;;;;18.73;67.88;100438.08;2309606;77;50397;-75
2022/10/22 05:54:21;;;;;;;;;;;;;;;18.71;68.07;100441.45;2309468;77;50084;-77
2022/10/22 05:57:22;;;;;;;;;;;;;;;18.74;67.79;100453.64;2286161;75;51042;-73
2022/10/22 06:00:24;;;;;;;;;;;;;;;18.75;67.94;100460.16;2338445;75;51296;-74
2022/10/22 06:03:27;;;;;;;;;;;;;;;18.73;68.34;100456.84;2317864;75;51432;-74
2022/10/22 06:06:37;;;;;;;;;;;;;;;18.71;68.18;100461.55;2276627;77;50786;-74
2022/10/22 06:09:38;;;;;;;;;;;;;;;18.72;68.48;100457.32;2276405;77;49702;-73
2022/10/22 06:12:40;;;;;;;;;;;;;;;18.74;68.41;100449.10;2313219;75;50414;-73
2022/10/22 06:15:41;;;;;;;;;;;;;;;18.74;68.35;100450.45;2311109;75;50769;-74
2022/10/22 06:18:43;;;;;;;;;;;;;;;18.72;68.14;100449.28;2326220;75;51510;-72
2022/10/22 06:21:44;;;;;;;;;;;;;;;18.71;68.12;100445.47;2276278;77;50974;-74
2022/10/22 06:24:46;;;;;;;;;;;;;;;18.70;68.11;100449.14;2301676;75;50720;-74
2022/10/22 06:27:50;;;;;;;;;;;;;;;18.70;67.99;100458.53;2345926;75;51462;-73
2022/10/22 06:30:52;;;;;;;;;;;;;;;18.69;68.01;100465.74;2349359;75;50559;-74
2022/10/22 06:33:53;;;;;;;;;;;;;;;18.69;68.09;100473.78;2314545;75;51287;-75
2022/10/22 06:36:55;;;;;;;;;;;;;;;18.68;68.07;100477.50;2314802;75;50017;-75
2022/10/22 06:39:57;;;;;;;;;;;;;;;18.67;68.11;100490.55;2314979;75;50452;-75
2022/10/22 06:43:01;;;;;;;;;;;;;;;18.68;68.75;100489.55;2322038;75;50312;-75
2022/10/22 06:46:06;;;;;;;;;;;;;;;18.69;68.82;100493.06;2289780;75;51011;-75
2022/10/22 06:49:08;;;;;;;;;;;;;;;18.68;68.66;100495.43;2301624;75;50711;-75
2022/10/22 06:52:09;;;;;;;;;;;;;;;18.68;68.75;100494.09;2347483;75;50681;-75
2022/10/22 06:55:11;;;;;;;;;;;;;;;18.69;68.57;100502.44;2349387;75;50846;-74
2022/10/22 06:58:12;;;;;;;;;;;;;;;18.77;67.87;100505.04;2314723;75;51580;-75
2022/10/22 07:01:14;;;;;;;;;;;;;;;18.81;67.74;100505.52;2310384;75;51491;-76
2022/10/22 07:04:16;;;;;;;;;;;;;;;18.81;67.62;100505.52;2349551;75;51569;-75
2022/10/22 07:07:17;;;;;;;;;;;;;;;18.75;67.94;100496.84;2313734;75;50725;-75
2022/10/22 07:10:19;;;;;;;;;;;;;;;18.70;67.95;100501.41;2288987;76;53507;-75
2022/10/22 07:13:20;;;;;;;;;;;;;;;18.69;68.12;100505.13;2283973;77;51561;-75
2022/10/22 07:16:22;;;;;;;;;;;;;;;18.69;68.31;100509.14;2309712;77;51534;-75
2022/10/22 07:19:24;;;;;;;;;;;;;;;18.69;68.68;100513.16;2309718;77;51579;-75
2022/10/22 07:22:25;;;;;;;;;;;;;;;18.69;68.95;100518.52;2251116;77;51811;-75
2022/10/22 07:25:27;;;;;;;;;;;;;;;18.72;69.76;100517.63;2309521;77;50332;-75
2022/10/22 07:28:29;;;;;;;;;;;;;;;18.75;69.54;100512.44;2289900;75;50485;-75
2022/10/22 07:31:31;;;;;;;;;;;;;;;18.81;69.51;100514.89;2349584;75;51582;-75
2022/10/22 07:34:32;;;;;;;;;;;;;;;18.81;70.01;100523.77;2289032;75;51001;-75
2022/10/22 07:37:34;;;;;;;;;;;;;;;18.82;69.67;100520.05;2317616;75;51506;-75
2022/10/22 07:40:35;;;;;;;;;;;;;;;18.81;69.53;100529.13;2309867;77;50467;-76
2022/10/22 07:43:37;;;;;;;;;;;;;;;18.81;69.26;100537.69;2311468;75;50411;-77
2022/10/22 07:46:38;;;;;;;;;;;;;;;18.85;68.01;100553.70;2277310;77;49596;-77
2022/10/22 07:49:40;;;;;;;;;;;;;;;18.82;67.22;100550.05;2278267;75;50579;-77
2022/10/22 07:52:42;;;;;;;;;;;;;;;18.80;66.17;100559.61;2306725;77;50728;-77
2022/10/22 07:55:43;;;;;;;;;;;;;;;18.77;65.92;100565.87;2305545;77;51644;-76
2022/10/22 07:58:45;;;;;;;;;;;;;;;18.74;65.67;100560.85;2272464;77;50882;-76
2022/10/22 08:01:46;;;;;;;;;;;;;;;18.74;66.01;100564.88;2306526;75;51566;-77
2022/10/22 08:04:48;;;;;;;;;;;;;;;18.86;65.98;100572.29;2338330;75;50320;-76
2022/10/22 08:07:49;;;;;;;;;;;;;;;18.99;65.84;100566.78;2313633;75;50075;-76
2022/10/22 08:10:51;;;;;;;;;;;;;;;19.08;65.72;100569.66;2276429;77;51259;-77
2022/10/22 08:13:53;;;;;;;;;;;;;;;19.25;65.35;100576.47;2273165;76;51552;-78
2022/10/22 08:16:55;;;;;;;;;;;;;;;19.26;65.28;100572.75;2317239;76;51518;-77
2022/10/22 08:19:56;;;;;;;;;;;;;;;19.27;65.29;100578.97;2263405;76;51490;-78
2022/10/22 08:22:58;;;;;;;;;;;;;;;19.29;65.19;100573.73;2326731;76;49587;-77
2022/10/22 08:26:01;;;;;;;;;;;;;;;19.30;65.29;100570.02;2371332;75;51589;-76
2022/10/22 08:29:03;;;;;;;;;;;;;;;19.29;65.30;100572.40;2349601;75;50162;-77
2022/10/22 08:32:05;;;;;;;;;;;;;;;19.28;65.31;100578.77;2350395;75;50387;-77
2022/10/22 08:35:06;;;;;;;;;;;;;;;19.28;65.37;100573.40;2315142;75;51295;-76
2022/10/22 08:38:08;;;;;;;;;;;;;;;19.28;65.44;100584.12;2314047;76;51541;-77
2022/10/22 08:41:11;;;;;;;;;;;;;;;19.31;65.39;100597.67;2291916;75;50761;-77
2022/10/22 08:44:17;;;;;;;;;;;;;;;19.26;65.57;100604.11;2350116;75;51445;-77
2022/10/22 08:47:20;;;;;;;;;;;;;;;19.21;65.71;100610.04;2314347;76;50997;-77
2022/10/22 08:50:23;;;;;;;;;;;;;;;19.18;65.86;100604.23;2326340;75;50823;-77
2022/10/22 08:53:27;;;;;;;;;;;;;;;19.14;65.98;100602.45;2332849;76;50290;-77
2022/10/22 08:56:28;;;;;;;;;;;;;;;19.13;66.00;100609.64;2331043;75;50650;-78
2022/10/22 08:59:34;;;;;;;;;;;;;;;19.10;66.07;100606.51;2338913;75;50442;-78
2022/10/22 09:02:53;;;;;;;;;;;;;;;19.08;66.18;100604.52;2350011;75;51589;-77
2022/10/22 09:06:12;;;;;;;;;;;;;;;19.11;66.12;100608.16;2349253;75;51419;-77
2022/10/22 09:09:17;;;;;;;;;;;;;;;19.11;66.10;100610.84;2344793;75;50878;-77
2022/10/22 09:12:19;;;;;;;;;;;;;;;19.09;66.19;100610.22;2276525;77;51024;-77
2022/10/22 09:15:20;;;;;;;;;;;;;;;19.08;66.26;100609.88;2276194;77;50983;-78
2022/10/22 09:18:42;;;;;;;;;;;;;;;19.06;66.34;100618.62;2301826;77;51481;-77
2022/10/22 09:21:48;;;;;;;;;;;;;;;18.97;66.80;100620.58;2332114;75;50452;-76
2022/10/22 09:24:54;;;;;;;;;;;;;;;18.90;67.17;100629.03;2285474;77;52721;-77
2022/10/22 09:27:58;;;;;;;;;;;;;;;18.83;67.38;100623.60;2309953;77;50823;-78
2022/10/22 09:31:00;;;;;;;;;;;;;;;18.81;67.50;100626.14;2302195;77;51463;-77
2022/10/22 09:34:06;;;;;;;;;;;;;;;18.78;67.70;100623.33;2317429;75;52285;-77
2022/10/22 09:37:06;;;;;;;;;;;;;;;18.77;67.79;100635.05;2349460;75;22397;-78
2022/10/22 09:40:10;;;;;;;;;;;;;;;18.77;67.76;100633.70;2350412;75;51546;-78
2022/10/22 09:43:12;;;;;;;;;;;;;;;18.77;67.84;100638.24;2350222;75;50488;-77
2022/10/22 09:46:18;;;;;;;;;;;;;;;18.76;67.78;100644.11;2349655;75;51488;-77
2022/10/22 09:49:21;;;;;;;;;;;;;;;18.81;67.47;100647.08;2314891;75;51056;-77
2022/10/22 09:52:26;;;;;;;;;;;;;;;18.78;67.96;100644.77;2315011;75;50838;-77
2022/10/22 09:55:28;;;;;;;;;;;;;;;18.80;68.26;100652.09;2349830;75;50397;-77
2022/10/22 09:58:29;;;;;;;;;;;;;;;18.80;68.04;100648.08;2350114;75;51568;-77
2022/10/22 10:01:32;;;;;;;;;;;;;;;18.81;69.56;100649.76;2314642;75;51333;-77
2022/10/22 10:04:34;;;;;;;;;;;;;;;18.82;69.49;100648.73;2315202;75;51496;-77
2022/10/22 10:07:35;;;;;;;;;;;;;;;18.83;69.22;100646.39;2350058;75;50315;-78
2022/10/22 10:10:39;;;;;;;;;;;;;;;18.82;69.55;100650.58;2350163;75;51512;-78
2022/10/22 10:13:57;;;;;;;;;;;;;;;18.83;69.49;100650.89;2314017;75;51393;-77
2022/10/22 10:17:00;;;;;;;;;;;;;;;18.82;69.38;100651.92;2349298;75;50534;-78
2022/10/22 10:20:13;;;;;;;;;;;;;;;18.83;69.44;100653.09;2334964;75;50594;-77
2022/10/22 10:23:22;;;;;;;;;;;;;;;18.83;69.35;100654.43;2340200;75;50413;-77
2022/10/22 10:26:44;;;;;;;;;;;;;;;18.83;69.41;100655.77;2314906;75;52517;-78
2022/10/22 10:29:47;;;;;;;;;;;;;;;18.82;69.51;100657.28;2296434;77;49527;-77
2022/10/22 10:32:56;;;;;;;;;;;;;;;18.81;69.36;100655.12;2309644;76;50236;-77
2022/10/22 10:36:01;;;;;;;;;;;;;;;18.81;69.43;100653.78;2309158;77;50416;-77
2022/10/22 10:39:09;;;;;;;;;;;;;;;18.81;69.26;100655.12;2276534;77;50985;-77
2022/10/22 10:42:29;;;;;;;;;;;;;;;18.80;69.38;100654.77;2309892;77;50312;-78
2022/10/22 10:45:38;;;;;;;;;;;;;;;18.82;69.00;100646.05;2309496;77;50451;-77
2022/10/22 10:48:44;;;;;;;;;;;;;;;18.82;69.31;100648.73;2309900;75;50842;-77
2022/10/22 10:51:47;;;;;;;;;;;;;;;18.85;68.94;100647.52;2306630;75;50987;-78
2022/10/22 10:55:06;;;;;;;;;;;;;;;18.83;69.18;100649.55;2349680;75;54679;-77
2022/10/22 10:58:26;;;;;;;;;;;;;;;18.84;69.07;100653.92;2342332;75;50357;-77
2022/10/22 11:01:29;;;;;;;;;;;;;;;18.84;68.98;100652.06;2322022;75;50725;-77
2022/10/22 11:04:38;;;;;;;;;;;;;;;18.86;68.95;100666.64;2314758;75;51666;-77
2022/10/22 11:07:41;;;;;;;;;;;;;;;18.97;68.76;100659.98;2350371;75;50496;-76
2022/10/22 11:10:46;;;;;;;;;;;;;;;18.93;69.16;100662.17;2350475;75;51544;-77
2022/10/22 11:14:01;;;;;;;;;;;;;;;18.93;69.16;100657.67;2349776;75;50673;-77
2022/10/22 11:17:05;;;;;;;;;;;;;;;18.93;69.19;100659.02;2315193;75;52026;-77
2022/10/22 11:20:10;;;;;;;;;;;;;;;18.92;69.25;100660.01;2333741;75;49898;-78
2022/10/22 11:23:14;;;;;;;;;;;;;;;18.93;69.64;100654.13;2305995;77;51755;-77
2022/10/22 11:29:52;;;;;;;;;;;;;;;18.95;69.45;100657.98;2294554;77;22316;-76
2022/10/22 11:32:54;;;;;;;;;;;;;;;18.95;69.59;100652.62;2304034;77;51502;-75
2022/10/22 11:35:56;;;;;;;;;;;;;;;18.95;69.62;100652.62;2304818;77;51625;-74
2022/10/22 11:38:57;;;;;;;;;;;;;;;19.00;69.69;100646.19;2302655;77;51502;-74
2022/10/22 11:42:01;;;;;;;;;;;;;;;19.08;69.70;100655.47;2285184;77;50151;-75
2022/10/22 11:45:04;;;;;;;;;;;;;;;19.10;69.75;100648.91;2297955;77;51561;-74
2022/10/22 11:48:07;;;;;;;;;;;;;;;19.13;69.57;100660.59;2298062;77;51509;-75
2022/10/22 11:51:27;;;;;;;;;;;;;;;19.15;69.57;100653.20;2309968;76;51478;-75
2022/10/22 11:54:41;;;;;;;;;;;;;;;19.15;69.64;100657.74;2279654;77;50247;-75
2022/10/22 11:57:40;;;;;;;;;;;;;;;19.15;69.62;100665.27;2297501;76;22381;-74
2022/10/22 12:00:43;;;;;;;;;;;;;;;19.17;69.63;100659.73;2324301;76;50712;-74
2022/10/22 12:03:52;;;;;;;;;;;;;;;19.16;69.73;100647.32;2295874;76;51497;-74
2022/10/22 12:06:57;;;;;;;;;;;;;;;19.18;69.78;100653.34;2296092;75;50275;-75
2022/10/22 12:09:59;;;;;;;;;;;;;;;19.19;69.88;100652.34;2300914;76;50960;-75
2022/10/22 12:13:05;;;;;;;;;;;;;;;19.21;69.91;100650.27;2337488;76;51562;-74
2022/10/22 12:16:08;;;;;;;;;;;;;;;19.20;69.87;100655.33;2336451;76;50410;-74
2022/10/22 12:19:12;;;;;;;;;;;;;;;19.21;69.82;100651.62;2295825;75;50965;-75
2022/10/22 12:22:24;;;;;;;;;;;;;;;19.22;69.86;100645.25;2328048;76;50286;-73
2022/10/22 12:25:28;;;;;;;;;;;;;;;19.25;69.94;100654.26;2260151;77;51683;-73
2022/10/22 12:28:29;;;;;;;;;;;;;;;19.27;69.88;100664.81;2260239;77;51530;-74
2022/10/22 12:31:32;;;;;;;;;;;;;;;19.28;69.86;100661.92;2259574;78;52408;-72
2022/10/22 12:34:34;;;;;;;;;;;;;;;19.31;69.65;100654.84;2237168;77;51364;-72
2022/10/22 12:37:36;;;;;;;;;;;;;;;19.32;69.77;100659.72;2285307;77;50482;-73
2022/10/22 12:40:39;;;;;;;;;;;;;;;19.32;69.48;100662.41;2260224;78;51518;-72
2022/10/22 12:43:41;;;;;;;;;;;;;;;19.25;69.55;100661.48;2259433;77;52606;-72
2022/10/22 12:46:43;;;;;;;;;;;;;;;19.21;69.53;100667.71;2295466;75;51414;-72
2022/10/22 12:49:49;;;;;;;;;;;;;;;19.18;69.48;100658.70;2286648;77;50817;-72
2022/10/22 12:52:50;;;;;;;;;;;;;;;19.14;69.54;100660.94;2298073;77;50512;-73
2022/10/22 12:55:52;;;;;;;;;;;;;;;19.14;69.54;100661.45;2306535;77;51904;-73
2022/10/22 12:58:58;;;;;;;;;;;;;;;19.21;69.25;100655.64;2298409;75;50282;-73
2022/10/22 13:01:59;;;;;;;;;;;;;;;19.18;69.48;100661.90;2274439;77;51670;-73
2022/10/22 13:05:21;;;;;;;;;;;;;;;19.15;69.49;100659.91;2297780;77;51496;-73
2022/10/22 13:08:25;;;;;;;;;;;;;;;19.13;69.54;100657.91;2324396;76;51081;-73
2022/10/22 13:11:39;;;;;;;;;;;;;;;19.12;69.47;100650.08;2298785;75;51498;-73
2022/10/22 13:14:41;;;;;;;;;;;;;;;19.11;69.46;100666.68;2297978;77;51599;-73
2022/10/22 13:17:42;;;;;;;;;;;;;;;19.12;69.39;100666.98;2260393;77;50403;-74
2022/10/22 13:20:51;;;;;;;;;;;;;;;19.10;69.47;100668.20;2272762;76;49591;-73
2022/10/22 13:23:53;;;;;;;;;;;;;;;19.11;69.43;100673.87;2293365;76;51572;-73
2022/10/22 13:26:55;;;;;;;;;;;;;;;19.10;69.42;100672.22;2299544;77;51334;-74
2022/10/22 13:29:58;;;;;;;;;;;;;;;19.12;69.40;100671.53;2302673;77;50206;-73
2022/10/22 13:33:01;;;;;;;;;;;;;;;19.09;69.49;100676.75;2269066;77;51377;-74
2022/10/22 13:36:03;;;;;;;;;;;;;;;19.09;69.50;100669.23;2296006;77;50169;-73
2022/10/22 13:39:07;;;;;;;;;;;;;;;19.09;69.57;100678.61;2298122;77;51538;-73
2022/10/22 13:42:12;;;;;;;;;;;;;;;19.07;69.50;100672.59;2298410;77;25741;-73
2022/10/22 13:45:14;;;;;;;;;;;;;;;19.07;69.49;100677.44;2324259;76;51386;-74
2022/10/22 13:48:16;;;;;;;;;;;;;;;19.06;69.42;100670.91;2302242;77;50322;-74
2022/10/22 13:51:19;;;;;;;;;;;;;;;19.05;69.50;100672.77;2303218;77;51509;-73
2022/10/22 13:54:21;;;;;;;;;;;;;;;19.06;69.52;100677.13;2308824;76;51638;-73
2022/10/22 13:57:22;;;;;;;;;;;;;;;19.06;69.46;100675.79;2276031;77;51048;-73
2022/10/22 14:00:24;;;;;;;;;;;;;;;19.06;69.44;100676.27;2309723;76;51434;-74
2022/10/22 14:03:29;;;;;;;;;;;;;;;19.04;69.41;100683.70;2309357;77;51456;-74
2022/10/22 14:06:31;;;;;;;;;;;;;;;19.04;69.37;100686.38;2309704;77;50465;-73
2022/10/22 14:09:33;;;;;;;;;;;;;;;19.03;69.40;100689.55;2275958;77;50961;-74
2022/10/22 14:12:34;;;;;;;;;;;;;;;19.03;69.38;100688.20;2309828;77;51575;-73
2022/10/22 14:15:36;;;;;;;;;;;;;;;19.02;69.38;100688.41;2275907;77;51523;-73
2022/10/22 14:18:37;;;;;;;;;;;;;;;19.01;69.36;100699.65;2305030;77;51517;-73
2022/10/22 14:21:39;;;;;;;;;;;;;;;19.01;69.35;100696.11;2296301;76;51162;-73
2022/10/22 14:24:41;;;;;;;;;;;;;;;19.00;69.34;100701.16;2312816;76;50281;-73
2022/10/22 14:27:42;;;;;;;;;;;;;;;18.99;69.31;100702.19;2337769;76;50627;-73
2022/10/22 14:30:44;;;;;;;;;;;;;;;18.99;69.33;100695.48;2337828;76;50659;-73
2022/10/22 14:33:45;;;;;;;;;;;;;;;18.98;69.24;100694.63;2312394;76;49653;-74
2022/10/22 14:36:47;;;;;;;;;;;;;;;18.98;69.24;100697.83;2312879;76;50660;-73
2022/10/22 14:39:52;;;;;;;;;;;;;;;18.97;69.23;100698.34;2337789;76;50734;-73
2022/10/22 14:42:52;;;;;;;;;;;;;;;18.96;69.24;100706.08;2337640;76;21774;-72
2022/10/22 14:45:53;;;;;;;;;;;;;;;18.97;69.24;100704.22;2286847;76;51589;-72
2022/10/22 14:48:55;;;;;;;;;;;;;;;18.96;69.21;100705.22;2334292;75;51482;-73
2022/10/22 14:51:57;;;;;;;;;;;;;;;18.96;69.15;100705.22;2270626;77;50201;-73
2022/10/22 14:54:58;;;;;;;;;;;;;;;18.93;69.17;100709.95;2290985;77;50462;-73
2022/10/22 14:58:00;;;;;;;;;;;;;;;18.93;69.12;100709.09;2269424;77;49536;-73
2022/10/22 15:01:02;;;;;;;;;;;;;;;18.93;69.13;100720.68;2269372;77;50789;-73
2022/10/22 15:04:03;;;;;;;;;;;;;;;18.92;69.09;100712.30;2270021;77;50174;-74
2022/10/22 15:07:05;;;;;;;;;;;;;;;18.92;69.02;100714.97;2351683;75;49831;-73
2022/10/22 15:10:07;;;;;;;;;;;;;;;18.91;69.05;100716.00;2298830;77;50388;-73
2022/10/22 15:13:08;;;;;;;;;;;;;;;18.91;68.99;100717.34;2324794;76;51416;-74
2022/10/22 15:16:10;;;;;;;;;;;;;;;18.90;68.97;100718.34;2298494;77;50323;-74
2022/10/22 15:19:12;;;;;;;;;;;;;;;18.90;68.97;100717.52;2298662;77;51517;-73
2022/10/22 15:22:13;;;;;;;;;;;;;;;18.89;68.96;100718.54;2274353;77;50960;-74
2022/10/22 15:25:15;;;;;;;;;;;;;;;18.88;68.96;100719.06;2298742;77;50410;-74
2022/10/22 15:28:16;;;;;;;;;;;;;;;18.90;68.90;100725.55;2298746;77;50405;-74
2022/10/22 15:31:18;;;;;;;;;;;;;;;18.88;68.88;100727.58;2298815;77;50331;-74
2022/10/22 15:34:24;;;;;;;;;;;;;;;18.88;68.84;100728.44;2274098;77;50112;-73
2022/10/22 15:37:26;;;;;;;;;;;;;;;18.86;68.87;100729.13;2300182;77;51523;-74
2022/10/22 15:40:27;;;;;;;;;;;;;;;18.87;68.79;100740.16;2310247;77;52252;-74
2022/10/22 15:43:29;;;;;;;;;;;;;;;18.87;68.75;100732.12;2309976;77;50273;-74